Time;durP1;ratioP1;P1;durP2;ratioP2;P2;SDS_P1;SDS_P2;PMS_P1;PMS_P2;Temp;Humidity;BMP_temperature;BMP_pressure;BME280_temperature;BME280_humidity;BME280_pressure;Samples;Min_cycle;Max_cycle;Signal;HPM_P1;HPM_P2
2023/06/14 00:01:38;;;;;;;78.50;2.73;;;20.30;20.20;;;;;;4935303;29;20211;-69
2023/06/14 00:04:08;;;;;;;77.97;2.37;;;20.30;20.00;;;;;;4935691;29;20176;-69
2023/06/14 00:06:34;;;;;;;78.30;2.70;;;20.20;20.00;;;;;;4935349;29;20162;-69
2023/06/14 00:09:00;;;;;;;77.97;2.33;;;20.30;20.70;;;;;;4935427;29;20420;-69
2023/06/14 00:11:26;;;;;;;78.33;2.70;;;20.20;21.40;;;;;;4935144;29;20182;-69
2023/06/14 00:13:52;;;;;;;77.87;2.30;;;20.10;21.10;;;;;;4935377;29;20874;-69
2023/06/14 00:16:19;;;;;;;78.47;2.73;;;20.10;21.20;;;;;;4935232;29;20416;-69
2023/06/14 00:18:45;;;;;;;78.57;2.73;;;20.10;21.80;;;;;;4935316;29;20479;-72
2023/06/14 00:21:12;;;;;;;79.00;2.73;;;20.00;21.50;;;;;;4935027;29;20470;-70
2023/06/14 00:23:37;;;;;;;77.97;2.20;;;19.90;22.30;;;;;;4934931;29;20441;-69
2023/06/14 00:26:03;;;;;;;78.47;2.50;;;19.90;21.20;;;;;;4935179;29;20426;-69
2023/06/14 00:28:29;;;;;;;78.20;2.40;;;19.90;21.70;;;;;;4935652;29;20660;-71
2023/06/14 00:30:55;;;;;;;78.37;2.50;;;20.00;21.40;;;;;;4934861;29;20204;-69
2023/06/14 00:33:21;;;;;;;79.17;2.60;;;19.70;22.50;;;;;;4935202;29;20762;-69
2023/06/14 00:35:46;;;;;;;78.90;2.60;;;19.70;23.00;;;;;;4934651;29;20509;-69
2023/06/14 00:38:12;;;;;;;80.57;3.23;;;19.70;21.90;;;;;;4935127;29;20434;-69
2023/06/14 00:40:38;;;;;;;78.37;2.23;;;19.50;21.80;;;;;;4934561;29;20949;-69
2023/06/14 00:43:04;;;;;;;78.60;2.27;;;19.50;22.50;;;;;;4934965;29;20208;-69
2023/06/14 00:45:31;;;;;;;78.97;2.43;;;19.50;23.90;;;;;;4934620;29;20209;-72
2023/06/14 00:47:57;;;;;;;78.50;2.10;;;19.30;23.40;;;;;;4934864;29;20264;-69
2023/06/14 00:50:23;;;;;;;78.77;2.30;;;19.30;22.00;;;;;;4934886;29;20419;-69
2023/06/14 00:52:49;;;;;;;79.67;2.60;;;19.40;22.60;;;;;;4934754;29;20487;-69
2023/06/14 00:55:15;;;;;;;79.00;2.47;;;19.20;22.00;;;;;;4934382;29;20550;-68
2023/06/14 00:57:41;;;;;;;78.60;2.10;;;19.20;23.30;;;;;;4933540;29;20911;-69
2023/06/14 01:00:08;;;;;;;82.07;3.17;;;19.00;23.70;;;;;;4934714;29;20200;-69
2023/06/14 01:02:36;;;;;;;78.67;2.17;;;19.00;23.20;;;;;;4934625;29;20841;-69
2023/06/14 01:05:02;;;;;;;81.10;3.37;;;19.00;23.10;;;;;;4934231;29;20426;-71
2023/06/14 01:07:59;;;;;;;79.00;2.33;;;19.00;23.80;;;;;;4934646;29;20921;-71
2023/06/14 01:10:35;;;;;;;78.90;2.20;;;19.00;23.50;;;;;;4934602;29;20849;-69
2023/06/14 01:13:11;;;;;;;78.93;2.30;;;19.00;22.90;;;;;;4934731;29;20521;-69
2023/06/14 01:15:38;;;;;;;78.90;2.20;;;19.20;22.20;;;;;;4933250;29;20428;-69
2023/06/14 01:18:04;;;;;;;78.83;2.13;;;19.10;23.90;;;;;;4934530;29;20915;-69
2023/06/14 01:20:32;;;;;;;78.90;2.10;;;18.90;23.60;;;;;;4934426;29;20460;-69
2023/06/14 01:22:59;;;;;;;79.40;2.70;;;18.80;24.20;;;;;;4934301;29;20494;-69
2023/06/14 01:25:24;;;;;;;79.70;2.57;;;18.80;24.10;;;;;;4934255;29;20416;-71
2023/06/14 01:28:03;;;;;;;79.87;2.80;;;18.90;23.80;;;;;;4934037;29;20417;-71
2023/06/14 01:30:30;;;;;;;79.50;2.50;;;18.80;24.10;;;;;;4934519;29;20416;-69
2023/06/14 01:32:57;;;;;;;79.40;2.40;;;18.80;24.60;;;;;;4934141;29;20436;-69
2023/06/14 01:35:23;;;;;;;80.20;2.57;;;18.70;24.30;;;;;;4934259;29;20419;-69
2023/06/14 01:37:51;;;;;;;79.57;2.27;;;18.70;23.70;;;;;;4934222;29;20804;-70
2023/06/14 01:40:19;;;;;;;79.90;2.60;;;18.60;24.10;;;;;;4934355;29;20284;-69
2023/06/14 01:42:47;;;;;;;79.87;2.40;;;18.60;24.70;;;;;;4933802;29;20520;-71
2023/06/14 01:45:14;;;;;;;79.43;2.37;;;18.60;23.90;;;;;;4934008;29;20425;-69
2023/06/14 01:47:40;;;;;;;79.53;2.50;;;18.60;23.80;;;;;;4934157;29;20424;-69
2023/06/14 01:50:06;;;;;;;81.10;2.90;;;18.70;24.10;;;;;;4934250;29;20426;-69
2023/06/14 01:52:32;;;;;;;79.70;2.43;;;18.60;24.00;;;;;;4933857;29;20458;-68
2023/06/14 01:54:57;;;;;;;80.10;2.60;;;18.60;24.00;;;;;;4934011;29;20844;-69
2023/06/14 01:57:26;;;;;;;79.40;2.20;;;18.40;24.70;;;;;;4934140;29;20554;-72
2023/06/14 01:59:52;;;;;;;80.17;2.60;;;18.40;24.90;;;;;;4934037;29;20177;-72
2023/06/14 02:02:18;;;;;;;79.60;2.23;;;18.30;25.30;;;;;;4933828;29;20439;-69
2023/06/14 02:04:43;;;;;;;79.80;2.50;;;18.40;25.40;;;;;;4933849;29;20416;-69
2023/06/14 02:07:09;;;;;;;79.77;2.33;;;18.30;24.80;;;;;;4934153;29;20179;-71
2023/06/14 02:09:35;;;;;;;79.83;2.20;;;18.20;24.70;;;;;;4934136;29;20677;-69
2023/06/14 02:12:01;;;;;;;80.17;2.40;;;18.10;24.80;;;;;;4933534;29;20216;-69
2023/06/14 02:14:27;;;;;;;79.77;2.20;;;18.10;24.60;;;;;;4933862;29;20180;-70
2023/06/14 02:16:53;;;;;;;80.17;2.27;;;18.10;25.40;;;;;;4933873;29;20837;-69
2023/06/14 02:19:20;;;;;;;79.73;2.13;;;18.00;26.10;;;;;;4933827;29;20727;-69
2023/06/14 02:21:46;;;;;;;80.97;2.70;;;18.00;25.70;;;;;;4933738;29;20475;-70
2023/06/14 02:24:12;;;;;;;79.97;2.20;;;17.90;25.30;;;;;;4936641;29;20412;-72
2023/06/14 02:26:37;;;;;;;80.07;2.33;;;18.10;25.30;;;;;;4937869;29;20490;-72
2023/06/14 02:29:05;;;;;;;80.17;2.50;;;18.20;25.70;;;;;;4938155;29;20361;-72
2023/06/14 02:31:32;;;;;;;80.50;2.77;;;17.90;24.70;;;;;;4938042;29;20184;-70
2023/06/14 02:33:57;;;;;;;80.10;2.30;;;17.90;25.10;;;;;;4937222;29;20415;-70
2023/06/14 02:36:23;;;;;;;80.20;2.30;;;17.80;24.80;;;;;;4937155;29;20783;-70
2023/06/14 02:38:48;;;;;;;80.77;2.50;;;17.80;25.40;;;;;;4936976;29;20185;-70
2023/06/14 02:41:14;;;;;;;80.57;2.27;;;17.70;25.50;;;;;;4937183;29;20196;-70
2023/06/14 02:43:40;;;;;;;79.97;2.10;;;17.70;25.10;;;;;;4936851;29;20192;-70
2023/06/14 02:46:06;;;;;;;81.93;2.93;;;17.70;25.40;;;;;;4937037;29;20187;-70
2023/06/14 02:48:31;;;;;;;81.00;2.43;;;17.60;25.40;;;;;;4937122;29;20178;-70
2023/06/14 02:50:57;;;;;;;80.70;2.67;;;17.50;25.20;;;;;;4936828;29;20452;-70
2023/06/14 02:53:22;;;;;;;80.90;2.77;;;17.50;25.50;;;;;;4936937;29;20688;-70
2023/06/14 02:55:48;;;;;;;81.60;2.40;;;17.60;25.60;;;;;;4936599;29;20188;-70
2023/06/14 02:58:14;;;;;;;80.33;2.23;;;17.50;26.10;;;;;;4936773;29;20204;-70
2023/06/14 03:00:40;;;;;;;83.07;3.27;;;17.40;26.80;;;;;;4935405;29;20259;-70
2023/06/14 03:03:13;;;;;;;81.10;2.33;;;17.40;26.90;;;;;;4935313;29;20446;-70
2023/06/14 03:05:45;;;;;;;80.60;2.50;;;17.40;26.40;;;;;;4935051;29;20465;-70
2023/06/14 03:08:16;;;;;;;82.63;3.07;;;17.40;26.40;;;;;;4936748;29;20463;-70
2023/06/14 03:10:43;;;;;;;80.80;2.17;;;17.40;26.30;;;;;;4936192;29;20493;-70
2023/06/14 03:13:10;;;;;;;80.57;2.17;;;17.30;25.90;;;;;;4936457;29;20569;-70
2023/06/14 03:15:36;;;;;;;80.57;2.30;;;17.30;26.50;;;;;;4936272;29;20415;-70
2023/06/14 03:18:03;;;;;;;80.30;2.10;;;17.20;26.30;;;;;;4936466;29;20894;-70
2023/06/14 03:20:32;;;;;;;82.53;2.93;;;17.20;26.80;;;;;;4935158;29;20290;-70
2023/06/14 03:22:59;;;;;;;80.87;2.20;;;17.30;26.90;;;;;;4936225;29;20476;-70
2023/06/14 03:25:25;;;;;;;80.53;2.10;;;17.20;27.30;;;;;;4936187;29;20488;-70
2023/06/14 03:27:51;;;;;;;81.17;2.30;;;17.20;27.00;;;;;;4936368;29;20891;-70
2023/06/14 03:30:17;;;;;;;80.60;2.20;;;17.20;27.20;;;;;;4936435;29;20841;-70
2023/06/14 03:32:42;;;;;;;80.87;2.40;;;17.30;26.90;;;;;;4936183;29;20571;-70
2023/06/14 03:35:09;;;;;;;82.13;2.53;;;17.20;26.70;;;;;;4935833;29;20632;-70
2023/06/14 03:37:35;;;;;;;80.90;2.47;;;17.20;27.00;;;;;;4936125;29;20184;-70
2023/06/14 03:40:01;;;;;;;80.80;2.30;;;17.10;26.90;;;;;;4935870;29;20586;-70
2023/06/14 03:42:26;;;;;;;80.70;2.30;;;17.00;26.80;;;;;;4936102;29;20255;-70
2023/06/14 03:44:52;;;;;;;80.57;2.00;;;17.00;28.10;;;;;;4935743;29;20180;-70
2023/06/14 03:47:17;;;;;;;80.97;2.40;;;17.00;27.50;;;;;;4935875;29;20180;-70
2023/06/14 03:49:43;;;;;;;80.87;2.30;;;17.10;27.00;;;;;;4935879;29;20214;-70
2023/06/14 03:52:09;;;;;;;81.10;2.27;;;17.10;26.80;;;;;;4935985;29;20200;-70
2023/06/14 03:54:35;;;;;;;81.30;2.57;;;17.10;27.20;;;;;;4936047;29;20251;-70
2023/06/14 03:57:00;;;;;;;80.90;2.60;;;17.20;26.50;;;;;;4935609;29;20469;-70
2023/06/14 03:59:26;;;;;;;81.00;2.33;;;17.20;26.30;;;;;;4935777;29;20275;-70
2023/06/14 04:01:53;;;;;;;81.73;2.60;;;17.20;27.10;;;;;;4935550;29;20578;-70
2023/06/14 04:04:19;;;;;;;81.63;2.27;;;17.20;27.00;;;;;;4935864;29;20483;-70
2023/06/14 04:06:48;;;;;;;80.60;2.10;;;17.20;26.60;;;;;;4935150;29;20510;-70
2023/06/14 04:09:13;;;;;;;80.80;2.20;;;17.20;26.80;;;;;;4935508;29;20243;-70
2023/06/14 04:11:39;;;;;;;82.30;2.70;;;17.20;26.90;;;;;;4935509;29;20902;-70
2023/06/14 04:14:05;;;;;;;81.13;2.27;;;17.20;27.10;;;;;;4935594;29;20694;-70
2023/06/14 04:16:31;;;;;;;81.27;2.40;;;17.20;27.60;;;;;;4932808;29;20207;-70
2023/06/14 04:18:58;;;;;;;81.60;2.60;;;17.20;27.10;;;;;;4935203;29;20768;-70
2023/06/14 04:21:23;;;;;;;81.10;2.37;;;17.30;26.90;;;;;;4935281;29;20967;-70
2023/06/14 04:23:52;;;;;;;82.17;2.60;;;17.30;26.20;;;;;;4934999;29;20550;-70
2023/06/14 04:26:19;;;;;;;80.90;2.10;;;17.30;25.30;;;;;;4934886;29;20259;-70
2023/06/14 04:28:46;;;;;;;81.47;2.20;;;17.30;25.40;;;;;;4935116;29;20419;-70
2023/06/14 04:31:12;;;;;;;81.73;2.50;;;17.40;25.50;;;;;;4935345;29;20408;-70
2023/06/14 04:33:46;;;;;;;81.37;2.30;;;17.40;25.50;;;;;;4934717;29;20968;-70
2023/06/14 04:36:13;;;;;;;81.70;2.70;;;17.40;25.70;;;;;;4933686;29;20284;-70
2023/06/14 04:38:39;;;;;;;80.80;2.20;;;17.30;25.40;;;;;;4933653;29;20419;-70
2023/06/14 04:41:04;;;;;;;80.97;2.07;;;17.30;26.00;;;;;;4934993;29;20550;-70
2023/06/14 04:43:31;;;;;;;82.33;2.90;;;17.30;26.30;;;;;;4934874;29;20950;-70
2023/06/14 04:45:57;;;;;;;81.93;3.03;;;17.50;26.40;;;;;;4934234;29;20177;-71
2023/06/14 04:48:23;;;;;;;81.07;2.40;;;17.80;25.80;;;;;;4934820;29;20416;-70
2023/06/14 04:50:52;;;;;;;81.30;2.40;;;18.00;26.30;;;;;;4934654;29;20185;-70
2023/06/14 04:53:21;;;;;;;81.60;2.53;;;18.00;26.90;;;;;;4934956;29;20200;-70
2023/06/14 04:55:48;;;;;;;82.00;2.73;;;18.00;25.00;;;;;;4934653;29;20498;-70
2023/06/14 04:58:13;;;;;;;82.73;3.00;;;18.00;25.60;;;;;;4934864;29;20431;-70
2023/06/14 05:00:39;;;;;;;82.10;2.80;;;18.10;25.50;;;;;;4934391;29;20835;-70
2023/06/14 05:03:05;;;;;;;83.27;3.53;;;18.10;24.90;;;;;;4934661;29;20199;-70
2023/06/14 05:05:31;;;;;;;86.90;4.03;;;18.20;25.60;;;;;;4934149;29;20263;-70
2023/06/14 05:07:57;;;;;;;83.67;3.43;;;18.30;26.20;;;;;;4934644;29;20404;-70
2023/06/14 05:10:24;;;;;;;82.00;2.80;;;18.40;26.10;;;;;;4934457;29;21055;-70
2023/06/14 05:12:50;;;;;;;81.90;3.10;;;18.40;24.80;;;;;;4934715;29;20236;-70
2023/06/14 05:15:15;;;;;;;81.37;2.57;;;18.30;25.40;;;;;;4934399;29;20419;-69
2023/06/14 05:17:42;;;;;;;81.53;2.53;;;18.40;24.90;;;;;;4934422;29;20180;-70
2023/06/14 05:20:10;;;;;;;81.50;2.77;;;18.60;25.00;;;;;;4934579;29;20452;-69
2023/06/14 05:22:35;;;;;;;81.27;2.40;;;18.70;24.20;;;;;;4934075;29;20431;-69
2023/06/14 05:25:02;;;;;;;81.10;2.30;;;18.70;24.80;;;;;;4934348;29;20499;-69
2023/06/14 05:27:27;;;;;;;82.90;2.70;;;18.90;25.20;;;;;;4933203;29;20183;-70
2023/06/14 05:29:55;;;;;;;82.10;2.87;;;19.00;24.50;;;;;;4934300;29;20905;-70
2023/06/14 05:32:21;;;;;;;81.57;2.63;;;18.90;23.80;;;;;;4934281;29;20681;-69
2023/06/14 05:34:46;;;;;;;82.40;3.20;;;18.90;24.90;;;;;;4933746;29;20506;-69
2023/06/14 05:37:13;;;;;;;82.00;2.77;;;18.80;23.30;;;;;;4934405;29;20175;-69
2023/06/14 05:39:38;;;;;;;81.77;2.70;;;18.40;24.80;;;;;;4934429;29;20536;-69
2023/06/14 05:42:04;;;;;;;81.27;2.50;;;18.50;24.90;;;;;;4934203;29;20461;-69
2023/06/14 05:44:30;;;;;;;82.10;2.90;;;18.50;24.30;;;;;;4934116;29;20199;-69
2023/06/14 05:46:55;;;;;;;81.87;2.60;;;18.60;24.70;;;;;;4933786;29;20410;-69
2023/06/14 05:49:21;;;;;;;81.57;2.47;;;18.60;25.00;;;;;;4934310;29;20257;-69
2023/06/14 05:51:47;;;;;;;81.40;2.50;;;18.60;24.10;;;;;;4933965;29;20200;-69
2023/06/14 05:54:13;;;;;;;81.77;2.30;;;18.30;24.70;;;;;;4934058;29;20176;-69
2023/06/14 05:56:38;;;;;;;81.93;2.60;;;18.70;25.00;;;;;;4933822;29;20414;-69
2023/06/14 05:59:04;;;;;;;81.17;2.47;;;19.00;23.50;;;;;;4936847;29;20180;-69
2023/06/14 06:01:30;;;;;;;81.67;2.40;;;18.80;24.90;;;;;;4937601;29;20200;-69
2023/06/14 06:03:56;;;;;;;81.90;2.40;;;19.10;23.80;;;;;;4937726;29;20185;-69
2023/06/14 06:06:22;;;;;;;81.30;2.33;;;19.50;23.30;;;;;;4936210;29;20863;-69
2023/06/14 06:08:47;;;;;;;82.80;3.10;;;18.70;22.00;;;;;;4938208;29;20525;-69
2023/06/14 06:11:13;;;;;;;81.67;2.73;;;18.20;22.90;;;;;;4936607;29;20182;-69
2023/06/14 06:13:39;;;;;;;81.20;2.60;;;18.70;24.00;;;;;;4937551;29;20298;-70
2023/06/14 06:16:06;;;;;;;81.67;2.63;;;18.70;21.60;;;;;;4936955;29;20204;-70
2023/06/14 06:18:31;;;;;;;80.50;2.33;;;18.30;22.60;;;;;;4937577;29;20807;-70
2023/06/14 06:20:57;;;;;;;81.10;2.50;;;18.30;23.20;;;;;;4937394;29;20222;-71
2023/06/14 06:23:22;;;;;;;81.33;2.67;;;19.20;22.50;;;;;;4937571;29;20453;-70
2023/06/14 06:25:48;;;;;;;81.13;2.60;;;19.70;21.20;;;;;;4937101;29;20318;-70
2023/06/14 06:28:14;;;;;;;80.30;2.10;;;19.70;22.40;;;;;;4937316;29;20430;-70
2023/06/14 06:30:40;;;;;;;80.67;2.43;;;19.20;21.30;;;;;;4937252;29;20183;-70
2023/06/14 06:33:05;;;;;;;80.67;2.30;;;19.30;21.30;;;;;;4937286;29;20226;-70
2023/06/14 06:35:32;;;;;;;81.57;3.00;;;19.10;21.10;;;;;;4937006;29;20603;-70
2023/06/14 06:37:58;;;;;;;81.87;2.70;;;19.30;20.70;;;;;;4937308;29;20188;-70
2023/06/14 06:40:24;;;;;;;80.30;2.10;;;19.60;21.10;;;;;;4937007;29;20517;-70
2023/06/14 06:42:50;;;;;;;80.97;2.60;;;20.10;23.60;;;;;;4936940;29;20199;-70
2023/06/14 06:45:15;;;;;;;81.27;2.83;;;19.80;19.90;;;;;;4936922;29;20168;-71
2023/06/14 06:47:41;;;;;;;80.57;2.60;;;19.70;20.30;;;;;;4936813;29;20178;-70
2023/06/14 06:50:07;;;;;;;80.47;2.30;;;20.30;21.50;;;;;;4937062;29;20176;-71
2023/06/14 06:52:33;;;;;;;80.07;2.10;;;20.70;19.80;;;;;;4936951;29;20194;-70
2023/06/14 06:54:58;;;;;;;80.50;2.40;;;20.80;19.80;;;;;;4936732;29;20411;-70
2023/06/14 06:57:24;;;;;;;80.40;2.40;;;20.20;19.40;;;;;;4936644;29;20184;-70
2023/06/14 06:59:50;;;;;;;80.43;2.63;;;19.70;20.50;;;;;;4936802;29;20179;-70
2023/06/14 07:02:16;;;;;;;80.90;2.57;;;20.20;21.20;;;;;;4937048;29;20203;-71
2023/06/14 07:04:42;;;;;;;80.60;2.50;;;20.60;22.20;;;;;;4936543;29;20407;-70
2023/06/14 07:07:09;;;;;;;81.23;2.90;;;20.20;20.10;;;;;;4936693;29;20508;-70
2023/06/14 07:09:35;;;;;;;79.90;2.10;;;19.90;20.10;;;;;;4936374;29;20709;-70
2023/06/14 07:12:01;;;;;;;79.80;2.10;;;19.70;20.30;;;;;;4936647;29;20888;-70
2023/06/14 07:14:26;;;;;;;80.50;2.77;;;20.20;20.30;;;;;;4936377;29;20418;-70
2023/06/14 07:16:52;;;;;;;80.00;2.23;;;20.60;20.90;;;;;;4936435;29;20180;-70
2023/06/14 07:19:17;;;;;;;80.17;2.50;;;20.40;20.30;;;;;;4936329;29;20678;-70
2023/06/14 07:21:43;;;;;;;80.83;2.50;;;20.40;19.70;;;;;;4936247;29;20292;-71
2023/06/14 07:24:09;;;;;;;80.67;2.77;;;20.70;19.70;;;;;;4936499;29;20667;-70
2023/06/14 07:26:38;;;;;;;80.17;2.63;;;20.50;19.60;;;;;;4936148;29;20170;-70
2023/06/14 07:29:03;;;;;;;80.07;2.63;;;20.90;20.70;;;;;;4936098;29;20184;-70
2023/06/14 07:31:29;;;;;;;80.13;2.63;;;21.40;20.90;;;;;;4936513;29;20508;-70
2023/06/14 07:33:54;;;;;;;80.37;2.40;;;21.60;19.30;;;;;;4936348;29;20217;-70
2023/06/14 07:36:20;;;;;;;79.60;2.23;;;21.00;19.90;;;;;;4936238;29;20184;-70
2023/06/14 07:38:46;;;;;;;80.30;2.50;;;21.30;19.80;;;;;;4936343;29;20222;-70
2023/06/14 07:41:11;;;;;;;79.43;2.17;;;20.80;20.30;;;;;;4935958;29;20257;-70
2023/06/14 07:43:37;;;;;;;88.50;2.70;;;21.00;20.20;;;;;;4935854;29;20210;-70
2023/06/14 07:46:02;;;;;;;80.27;2.70;;;20.50;20.80;;;;;;4935951;29;20216;-70
2023/06/14 07:48:28;;;;;;;79.20;2.20;;;22.80;21.40;;;;;;4935776;29;20176;-71
2023/06/14 07:50:54;;;;;;;79.60;2.40;;;20.70;20.00;;;;;;4936013;29;20186;-70
2023/06/14 07:53:20;;;;;;;79.40;2.40;;;21.50;18.90;;;;;;4935952;29;20203;-71
2023/06/14 07:55:47;;;;;;;80.07;2.57;;;21.70;18.80;;;;;;4935543;29;20176;-71
2023/06/14 07:58:13;;;;;;;79.30;2.40;;;21.90;18.60;;;;;;4935754;29;20388;-71
2023/06/14 08:00:38;;;;;;;80.10;2.83;;;22.10;18.20;;;;;;4935419;29;21073;-70
2023/06/14 08:03:04;;;;;;;78.80;2.00;;;21.90;18.20;;;;;;4935612;29;20278;-70
2023/06/14 08:05:30;;;;;;;79.90;2.60;;;21.50;19.30;;;;;;4935391;29;20307;-70
2023/06/14 08:07:55;;;;;;;79.70;3.00;;;21.50;20.00;;;;;;4935654;29;20187;-70
2023/06/14 08:10:22;;;;;;;80.40;3.37;;;21.80;20.50;;;;;;4935724;29;20500;-71
2023/06/14 08:12:49;;;;;;;79.40;2.60;;;22.20;19.70;;;;;;4935031;29;20639;-71
2023/06/14 08:15:16;;;;;;;79.60;2.60;;;22.80;19.20;;;;;;4935306;29;20502;-71
2023/06/14 08:17:43;;;;;;;79.30;2.57;;;22.80;18.60;;;;;;4935358;29;20901;-71
2023/06/14 08:20:10;;;;;;;79.47;2.83;;;22.60;18.30;;;;;;4934805;29;20431;-71
2023/06/14 08:22:37;;;;;;;78.77;2.20;;;22.80;19.20;;;;;;4935026;29;20437;-71
2023/06/14 08:25:03;;;;;;;79.67;2.60;;;23.00;18.40;;;;;;4935125;29;20437;-71
2023/06/14 08:27:29;;;;;;;79.20;2.50;;;23.20;18.50;;;;;;4933928;29;20441;-71
2023/06/14 08:29:55;;;;;;;79.23;2.33;;;23.30;18.80;;;;;;4935111;29;20457;-71
2023/06/14 08:32:21;;;;;;;79.70;2.57;;;23.60;18.60;;;;;;4933956;29;20440;-71
2023/06/14 08:34:47;;;;;;;78.70;2.27;;;23.90;17.70;;;;;;4934816;29;20418;-71
2023/06/14 08:37:13;;;;;;;78.60;2.37;;;24.10;17.10;;;;;;4935091;29;20420;-71
2023/06/14 08:39:39;;;;;;;79.20;2.50;;;24.10;16.20;;;;;;4935053;29;20177;-71
2023/06/14 08:42:07;;;;;;;79.00;2.50;;;24.00;16.80;;;;;;4934671;29;20473;-71
2023/06/14 08:44:33;;;;;;;78.90;2.47;;;23.20;17.20;;;;;;4934766;29;20683;-71
2023/06/14 08:47:00;;;;;;;79.27;2.73;;;23.60;17.70;;;;;;4934894;29;20451;-71
2023/06/14 08:49:26;;;;;;;79.43;2.53;;;23.10;16.80;;;;;;4934828;29;20657;-71
2023/06/14 08:52:00;;;;;;;78.77;2.50;;;23.50;18.00;;;;;;4935248;29;20493;-71
2023/06/14 08:54:30;;;;;;;79.77;2.53;;;24.20;17.10;;;;;;4934316;29;20551;-71
2023/06/14 08:56:57;;;;;;;78.10;2.07;;;24.10;16.30;;;;;;4934782;29;20485;-71
2023/06/14 08:59:38;;;;;;;78.17;2.30;;;24.70;17.00;;;;;;4934909;29;20673;-71
2023/06/14 09:02:05;;;;;;;78.57;2.60;;;25.10;15.90;;;;;;4934641;29;20463;-71
2023/06/14 09:04:32;;;;;;;78.47;2.50;;;25.10;15.20;;;;;;4934379;29;20416;-71
2023/06/14 09:06:58;;;;;;;79.20;2.53;;;25.20;15.40;;;;;;4934133;29;20921;-71
2023/06/14 09:09:28;;;;;;;78.40;2.43;;;25.20;15.80;;;;;;4934555;29;20410;-71
2023/06/14 09:11:54;;;;;;;79.10;2.83;;;25.10;15.40;;;;;;4934360;29;20864;-71
2023/06/14 09:14:21;;;;;;;77.80;2.50;;;25.20;14.90;;;;;;4934555;29;20396;-71
2023/06/14 09:16:47;;;;;;;79.20;2.93;;;25.10;14.90;;;;;;4932761;29;20428;-71
2023/06/14 09:19:25;;;;;;;77.77;2.20;;;25.30;16.00;;;;;;4934544;29;20415;-71
2023/06/14 09:21:52;;;;;;;78.70;2.70;;;25.60;14.60;;;;;;4934341;29;20211;-71
2023/06/14 09:24:19;;;;;;;77.23;2.13;;;24.90;15.80;;;;;;4934407;29;20523;-71
2023/06/14 09:26:47;;;;;;;78.37;3.10;;;25.40;14.90;;;;;;4934168;29;20414;-71
2023/06/14 09:29:13;;;;;;;77.60;2.27;;;25.70;15.20;;;;;;4934206;29;20416;-71
2023/06/14 09:31:38;;;;;;;79.43;3.23;;;25.30;15.00;;;;;;4934336;29;20412;-71
2023/06/14 09:34:05;;;;;;;78.07;2.50;;;25.50;14.80;;;;;;4934220;29;20203;-71
2023/06/14 09:36:32;;;;;;;77.77;2.53;;;25.90;14.80;;;;;;4934121;29;20214;-71
2023/06/14 09:39:05;;;;;;;79.13;2.70;;;26.10;14.50;;;;;;4934084;29;20411;-71
2023/06/14 09:41:33;;;;;;;77.97;2.87;;;26.40;13.70;;;;;;4934232;29;20816;-71
2023/06/14 09:44:02;;;;;;;76.70;2.13;;;26.50;13.70;;;;;;4934172;29;20416;-71
2023/06/14 09:46:29;;;;;;;77.60;2.80;;;26.90;12.90;;;;;;4933844;29;20524;-71
2023/06/14 09:48:57;;;;;;;77.37;2.70;;;26.70;12.70;;;;;;4934132;29;20750;-71
2023/06/14 09:51:24;;;;;;;77.20;2.43;;;25.50;14.00;;;;;;4934245;29;20471;-71
2023/06/14 09:53:50;;;;;;;77.17;2.70;;;25.20;12.10;;;;;;4933773;29;20470;-71
2023/06/14 09:56:25;;;;;;;77.00;2.70;;;25.70;14.10;;;;;;4934376;29;20419;-71
2023/06/14 09:58:55;;;;;;;77.20;2.70;;;26.00;13.80;;;;;;4934017;29;20455;-71
2023/06/14 10:01:21;;;;;;;76.47;2.40;;;26.60;12.80;;;;;;4934046;29;20467;-71
2023/06/14 10:03:49;;;;;;;76.77;2.40;;;26.80;11.40;;;;;;4933705;29;20439;-71
2023/06/14 10:06:16;;;;;;;76.30;2.30;;;27.00;10.90;;;;;;4933935;29;20434;-71
2023/06/14 10:08:43;;;;;;;76.10;2.20;;;27.20;10.70;;;;;;4933922;29;20415;-71
2023/06/14 10:11:09;;;;;;;77.10;2.50;;;25.50;12.60;;;;;;4934079;29;20918;-71
2023/06/14 10:13:35;;;;;;;75.90;2.23;;;25.70;12.80;;;;;;4933640;29;20462;-71
2023/06/14 10:16:23;;;;;;;75.90;2.20;;;26.00;11.20;;;;;;4933726;29;20191;-71
2023/06/14 10:19:14;;;;;;;75.73;2.40;;;25.60;13.40;;;;;;4933874;29;20411;-71
2023/06/14 10:21:55;;;;;;;76.43;2.90;;;26.30;11.10;;;;;;4933797;29;20447;-71
2023/06/14 10:24:35;;;;;;;76.17;2.50;;;25.70;11.70;;;;;;4933930;29;20781;-71
2023/06/14 10:27:01;;;;;;;75.67;2.47;;;26.50;12.70;;;;;;4933883;29;20388;-71
2023/06/14 10:29:31;;;;;;;75.60;2.37;;;26.90;11.50;;;;;;4933642;29;20431;-71
2023/06/14 10:31:59;;;;;;;76.23;2.50;;;27.40;11.80;;;;;;4933747;29;20599;-71
2023/06/14 10:34:26;;;;;;;75.20;2.43;;;26.70;11.10;;;;;;4933731;29;20503;-71
2023/06/14 10:37:07;;;;;;;75.33;2.60;;;27.10;11.20;;;;;;4933550;29;20414;-71
2023/06/14 10:39:44;;;;;;;75.17;2.30;;;27.30;11.40;;;;;;4933606;29;20415;-71
2023/06/14 10:42:10;;;;;;;75.57;2.63;;;27.70;10.80;;;;;;4932456;29;20534;-71
2023/06/14 10:44:40;;;;;;;75.37;2.50;;;28.10;10.40;;;;;;4935109;29;20420;-71
2023/06/14 10:47:22;;;;;;;75.27;2.43;;;28.50;10.20;;;;;;4937079;29;20172;-72
2023/06/14 10:50:02;;;;;;;75.57;2.80;;;27.70;9.90;;;;;;4936885;29;20404;-71
2023/06/14 10:52:29;;;;;;;75.00;2.30;;;27.80;11.30;;;;;;4937295;29;20864;-71
2023/06/14 10:55:14;;;;;;;75.70;2.67;;;27.80;10.20;;;;;;4936809;29;20916;-71
2023/06/14 10:57:47;;;;;;;76.77;2.30;;;27.70;9.70;;;;;;4936970;29;20537;-71
2023/06/14 11:00:16;;;;;;;75.20;2.87;;;26.40;11.30;;;;;;4936684;29;20410;-71
2023/06/14 11:03:03;;;;;;;75.07;2.80;;;26.80;12.10;;;;;;4936789;29;20506;-71
2023/06/14 11:05:29;;;;;;;75.07;2.50;;;27.60;10.60;;;;;;4936527;29;20396;-71
2023/06/14 11:08:14;;;;;;;75.13;2.30;;;28.00;10.10;;;;;;4936697;29;20964;-71
2023/06/14 11:10:45;;;;;;;74.77;2.40;;;28.70;10.70;;;;;;4936632;29;20760;-71
2023/06/14 11:13:11;;;;;;;74.77;2.27;;;28.70;9.20;;;;;;4936797;29;20846;-70
2023/06/14 11:15:38;;;;;;;76.63;2.93;;;28.80;10.20;;;;;;4936625;29;20486;-70
2023/06/14 11:18:11;;;;;;;74.97;2.20;;;28.80;8.90;;;;;;4936526;29;20650;-70
2023/06/14 11:20:37;;;;;;;75.67;3.03;;;28.40;10.10;;;;;;4936464;29;20467;-70
2023/06/14 11:23:04;;;;;;;74.70;2.37;;;28.40;10.20;;;;;;4936766;29;20458;-71
2023/06/14 11:25:30;;;;;;;74.77;2.50;;;28.70;9.50;;;;;;4936129;29;20193;-73
2023/06/14 11:27:56;;;;;;;75.67;2.50;;;28.60;11.00;;;;;;4936155;29;20515;-70
2023/06/14 11:30:23;;;;;;;74.70;2.53;;;28.10;9.50;;;;;;4936449;29;20210;-69
2023/06/14 11:32:50;;;;;;;74.17;2.20;;;27.20;9.90;;;;;;4936050;29;20431;-70
2023/06/14 11:35:17;;;;;;;74.80;2.20;;;27.10;9.90;;;;;;4936007;29;20412;-70
2023/06/14 11:37:44;;;;;;;75.40;2.40;;;27.60;9.40;;;;;;4936150;29;20806;-70
2023/06/14 11:44:16;;;;;;;73.63;2.03;;;29.20;7.30;;;;;;4936198;29;20940;-70
2023/06/14 11:46:42;;;;;;;73.50;2.03;;;30.10;6.80;;;;;;4934749;29;20408;-70
2023/06/14 11:49:09;;;;;;;73.27;2.20;;;30.00;7.60;;;;;;4935888;29;20459;-71
2023/06/14 11:51:35;;;;;;;72.80;2.07;;;31.00;6.40;;;;;;4935873;29;20523;-71
2023/06/14 11:54:05;;;;;;;72.87;2.20;;;31.40;6.80;;;;;;4935660;29;20416;-70
2023/06/14 11:56:32;;;;;;;72.43;2.07;;;33.30;4.50;;;;;;4934618;29;20881;-71
2023/06/14 11:58:58;;;;;;;72.00;2.10;;;32.20;4.90;;;;;;4935658;29;20503;-71
2023/06/14 12:01:23;;;;;;;71.87;2.27;;;30.80;7.40;;;;;;4938132;29;20459;-71
2023/06/14 12:03:50;;;;;;;72.27;2.03;;;31.80;6.70;;;;;;4941012;29;20435;-73
2023/06/14 12:06:25;;;;;;;71.17;1.80;;;33.30;4.80;;;;;;4938907;29;20176;-71
2023/06/14 12:08:50;;;;;;;71.07;2.00;;;34.70;4.10;;;;;;4935629;29;20905;-71
2023/06/14 12:11:16;;;;;;;71.00;2.00;;;34.70;2.20;;;;;;4935480;29;20415;-71
2023/06/14 12:13:42;;;;;;;71.73;2.30;;;34.40;2.80;;;;;;4935241;29;20204;-71
2023/06/14 12:16:09;;;;;;;71.03;2.17;;;35.50;2.60;;;;;;4935166;29;20496;-71
2023/06/14 12:18:37;;;;;;;70.40;2.17;;;35.30;1.40;;;;;;4935560;29;20455;-71
2023/06/14 12:21:06;;;;;;;69.77;2.00;;;35.60;3.10;;;;;;4935611;29;20459;-71
2023/06/14 12:23:48;;;;;;;68.87;1.80;;;36.10;2.70;;;;;;4935389;29;20522;-71
2023/06/14 12:26:18;;;;;;;69.27;2.07;;;35.80;2.50;;;;;;4935075;29;20495;-71
2023/06/14 12:28:45;;;;;;;68.53;2.00;;;35.80;2.00;;;;;;4935494;29;20388;-71
2023/06/14 12:31:15;;;;;;;68.70;2.00;;;36.20;1.10;;;;;;4935074;29;20419;-71
2023/06/14 12:33:41;;;;;;;67.97;2.00;;;36.00;1.70;;;;;;4935131;29;20514;-72
2023/06/14 12:36:08;;;;;;;67.63;2.17;;;34.20;1.90;;;;;;4935227;29;20490;-72
2023/06/14 12:38:34;;;;;;;67.97;2.30;;;33.80;3.70;;;;;;4934882;29;20977;-72
2023/06/14 12:41:00;;;;;;;66.80;1.83;;;34.10;3.40;;;;;;4934970;29;20455;-72
2023/06/14 12:43:26;;;;;;;66.80;2.23;;;34.30;2.30;;;;;;4935000;29;20194;-72